Time;durP1;ratioP1;P1;durP2;ratioP2;P2;SDS_P1;SDS_P2;PMS_P1;PMS_P2;Temp;Humidity;BMP_temperature;BMP_pressure;BME280_temperature;BME280_humidity;BME280_pressure;Samples;Min_cycle;Max_cycle;Signal;HPM_P1;HPM_P2
2022/10/03 00:01:14;;;;;;;6.40;4.70;;;10.90;99.90;;;;;;4990516;28;19913;-75
2022/10/03 00:03:49;;;;;;;6.53;4.82;;;10.80;99.90;;;;;;4991058;28;20495;-75
2022/10/03 00:06:28;;;;;;;6.68;5.22;;;10.80;99.90;;;;;;4991162;28;20034;-75
2022/10/03 00:09:37;;;;;;;6.55;4.95;;;10.70;99.90;;;;;;4990786;28;20024;-75
2022/10/03 00:12:20;;;;;;;8.38;6.47;;;10.70;99.90;;;;;;4973102;28;20375;-75
2022/10/03 00:15:17;;;;;;;6.47;5.78;;;10.60;99.90;;;;;;4990855;28;20023;-75
2022/10/03 00:17:52;;;;;;;6.72;5.60;;;10.60;99.90;;;;;;5005243;28;20391;-75
2022/10/03 00:20:17;;;;;;;7.55;5.68;;;10.50;99.90;;;;;;4990767;28;20061;-75
2022/10/03 00:22:53;;;;;;;8.57;5.82;;;10.40;99.90;;;;;;4990906;28;20058;-75
2022/10/03 00:25:45;;;;;;;7.90;5.63;;;10.40;99.90;;;;;;5000348;28;20406;-75
2022/10/03 00:28:32;;;;;;;8.57;6.00;;;10.30;99.90;;;;;;5001167;28;20058;-75
2022/10/03 00:31:09;;;;;;;7.85;6.10;;;10.20;99.90;;;;;;4991378;28;20042;-75
2022/10/03 00:34:04;;;;;;;7.28;5.60;;;10.20;99.90;;;;;;4990959;28;20027;-75
2022/10/03 00:36:55;;;;;;;6.53;5.57;;;10.10;99.90;;;;;;4992754;28;20818;-75
2022/10/03 00:39:49;;;;;;;9.70;7.13;;;10.10;99.90;;;;;;4995337;28;20023;-75
2022/10/03 00:42:39;;;;;;;8.07;6.20;;;10.00;99.90;;;;;;4986986;28;20080;-75
2022/10/03 00:45:20;;;;;;;8.07;6.60;;;10.00;99.90;;;;;;4995427;28;20035;-75
2022/10/03 00:48:00;;;;;;;11.20;6.80;;;10.00;99.90;;;;;;4995898;28;20320;-75
2022/10/03 00:51:05;;;;;;;8.70;6.47;;;9.90;99.90;;;;;;5002721;28;20049;-75
2022/10/03 00:53:46;;;;;;;9.30;6.45;;;9.80;99.90;;;;;;4975688;28;20046;-75
2022/10/03 00:56:30;;;;;;;8.77;6.78;;;9.80;99.90;;;;;;4995545;28;20022;-75
2022/10/03 00:59:02;;;;;;;8.50;6.13;;;9.70;99.90;;;;;;4995057;28;20030;-75
2022/10/03 01:01:27;;;;;;;8.80;6.68;;;9.70;99.90;;;;;;5009063;28;20467;-75
2022/10/03 01:03:53;;;;;;;9.98;6.53;;;9.60;99.90;;;;;;4995289;28;20068;-75
2022/10/03 01:06:35;;;;;;;9.23;6.77;;;9.60;99.90;;;;;;4995178;28;20030;-75
2022/10/03 01:09:34;;;;;;;8.90;7.53;;;9.60;99.90;;;;;;4994477;28;20022;-75
2022/10/03 01:12:21;;;;;;;9.73;7.40;;;9.60;99.90;;;;;;4994356;28;20018;-77
2022/10/03 01:15:01;;;;;;;8.80;6.50;;;9.60;99.90;;;;;;4994174;28;20046;-78
2022/10/03 01:17:38;;;;;;;11.07;7.33;;;9.50;99.90;;;;;;4993256;28;20026;-78
2022/10/03 01:20:19;;;;;;;12.30;7.37;;;9.50;99.90;;;;;;4994089;28;20324;-78
2022/10/03 01:22:47;;;;;;;11.20;7.13;;;9.50;99.90;;;;;;4994044;28;20504;-78
2022/10/03 01:25:36;;;;;;;11.67;7.23;;;9.50;99.90;;;;;;4990266;28;20510;-78
2022/10/03 01:31:16;;;;;;;13.70;7.83;;;9.40;99.90;;;;;;5002858;28;20081;-78
2022/10/03 01:33:53;;;;;;;11.27;7.67;;;9.40;99.90;;;;;;4989419;28;20748;-77
2022/10/03 01:36:39;;;;;;;11.83;8.70;;;9.40;99.90;;;;;;4993016;28;20046;-78
2022/10/03 01:39:12;;;;;;;11.80;8.27;;;9.40;99.90;;;;;;4993577;28;20022;-78
2022/10/03 01:42:04;;;;;;;12.47;8.23;;;9.30;99.90;;;;;;4993491;28;20023;-78
2022/10/03 01:44:42;;;;;;;12.00;9.00;;;9.30;99.90;;;;;;4991875;28;20037;-77
2022/10/03 01:47:38;;;;;;;13.53;9.00;;;9.20;99.90;;;;;;4991995;28;20023;-77
2022/10/03 01:50:11;;;;;;;12.13;9.02;;;9.20;99.90;;;;;;4993408;28;20077;-77
2022/10/03 01:52:55;;;;;;;14.87;8.93;;;9.20;99.90;;;;;;4993475;28;20022;-78
2022/10/03 01:55:21;;;;;;;11.63;8.57;;;9.20;99.90;;;;;;4991673;28;20037;-78
2022/10/03 01:58:04;;;;;;;13.73;9.50;;;9.10;99.90;;;;;;4993156;28;20026;-77
2022/10/03 02:00:57;;;;;;;13.00;9.07;;;9.10;99.90;;;;;;4993008;28;20026;-78
2022/10/03 02:03:36;;;;;;;12.53;8.90;;;9.10;99.90;;;;;;4993016;28;20439;-77
2022/10/03 02:06:26;;;;;;;10.70;9.07;;;9.00;99.90;;;;;;4992290;28;20022;-78
2022/10/03 02:09:04;;;;;;;12.50;9.13;;;9.00;99.90;;;;;;4992659;28;20471;-77
2022/10/03 02:12:00;;;;;;;13.90;9.63;;;9.00;99.90;;;;;;4993026;28;20030;-78
2022/10/03 02:15:00;;;;;;;12.70;8.90;;;8.90;99.90;;;;;;4992863;28;20518;-78
2022/10/03 02:18:00;;;;;;;11.97;8.97;;;8.90;99.90;;;;;;4991673;28;20045;-77
2022/10/03 02:20:53;;;;;;;10.07;8.60;;;8.90;99.90;;;;;;4992638;28;20042;-78
2022/10/03 02:23:26;;;;;;;13.67;8.93;;;8.80;99.90;;;;;;4992737;28;20380;-78
2022/10/03 02:26:31;;;;;;;13.23;8.97;;;8.80;99.90;;;;;;4991895;28;20380;-77
2022/10/03 02:29:09;;;;;;;11.97;8.80;;;8.80;99.90;;;;;;4976459;28;20141;-77
2022/10/03 02:31:59;;;;;;;11.40;9.27;;;8.70;99.90;;;;;;4989086;28;20026;-77
2022/10/03 02:34:51;;;;;;;12.70;8.83;;;8.70;99.90;;;;;;4987510;28;20034;-78
2022/10/03 02:37:17;;;;;;;12.30;8.20;;;8.70;99.90;;;;;;4991318;28;20030;-77
2022/10/03 02:40:22;;;;;;;13.30;8.57;;;8.60;99.90;;;;;;4992156;28;20125;-77
2022/10/03 02:43:14;;;;;;;13.43;9.07;;;8.60;99.90;;;;;;4983354;28;20051;-78
2022/10/03 02:45:58;;;;;;;12.47;8.97;;;8.60;99.90;;;;;;4991736;28;20034;-77
2022/10/03 02:48:41;;;;;;;14.07;9.67;;;8.50;99.90;;;;;;4990931;28;20023;-78
2022/10/03 02:51:19;;;;;;;15.13;9.60;;;8.50;99.90;;;;;;4992456;28;20023;-77
2022/10/03 02:53:46;;;;;;;14.13;9.30;;;8.50;99.90;;;;;;4992303;28;20109;-77
2022/10/03 02:56:48;;;;;;;11.00;8.93;;;8.50;99.90;;;;;;4991982;28;20084;-77
2022/10/03 02:59:37;;;;;;;12.50;8.70;;;8.40;99.90;;;;;;4980423;28;20597;-77
2022/10/03 03:02:37;;;;;;;14.63;9.33;;;8.40;99.90;;;;;;4973015;28;20042;-77
2022/10/03 03:05:33;;;;;;;15.00;9.33;;;8.40;99.90;;;;;;4972464;28;20039;-77
2022/10/03 03:08:36;;;;;;;12.40;9.00;;;8.40;99.90;;;;;;4982194;28;20515;-77
2022/10/03 03:11:24;;;;;;;12.00;8.40;;;8.40;99.90;;;;;;4979847;28;20030;-77
2022/10/03 03:14:17;;;;;;;12.17;9.20;;;8.30;99.90;;;;;;4992000;28;20459;-77
2022/10/03 03:16:57;;;;;;;12.60;8.70;;;8.30;99.90;;;;;;4991497;28;20066;-77
2022/10/03 03:19:51;;;;;;;11.10;8.10;;;8.30;99.90;;;;;;4990538;28;20023;-77
2022/10/03 03:22:38;;;;;;;13.63;8.50;;;8.20;99.90;;;;;;4991786;28;20101;-77
2022/10/03 03:25:22;;;;;;;10.10;8.60;;;8.20;99.90;;;;;;4991354;28;20030;-77
2022/10/03 03:28:06;;;;;;;11.20;8.40;;;8.20;99.90;;;;;;4990945;28;20498;-77
2022/10/03 03:31:11;;;;;;;11.10;8.27;;;8.20;99.90;;;;;;4991633;28;20491;-77
2022/10/03 03:33:40;;;;;;;11.20;8.30;;;8.10;99.90;;;;;;4986505;28;20038;-77
2022/10/03 03:36:20;;;;;;;10.40;8.33;;;8.10;99.90;;;;;;4991520;28;20081;-77
2022/10/03 03:38:58;;;;;;;11.50;8.30;;;8.10;99.90;;;;;;4991481;28;20525;-77
2022/10/03 03:41:42;;;;;;;13.50;8.87;;;8.00;99.90;;;;;;4991548;28;20037;-77
2022/10/03 03:44:45;;;;;;;12.10;8.77;;;8.00;99.90;;;;;;4990908;28;20117;-77
2022/10/03 03:47:13;;;;;;;14.70;8.67;;;8.00;99.90;;;;;;4978567;28;20034;-77
2022/10/03 03:49:56;;;;;;;15.23;9.03;;;8.00;99.90;;;;;;4991450;28;20531;-77
2022/10/03 03:52:44;;;;;;;11.77;8.83;;;8.00;99.90;;;;;;4991548;28;20031;-77
2022/10/03 03:55:42;;;;;;;13.00;8.73;;;7.90;99.90;;;;;;4990571;28;20103;-77
2022/10/03 03:58:44;;;;;;;12.87;9.83;;;7.90;99.90;;;;;;4991237;28;20030;-77
2022/10/03 04:01:30;;;;;;;13.40;8.93;;;7.90;99.90;;;;;;4991301;28;20025;-77
2022/10/03 04:04:13;;;;;;;;;;;7.90;99.90;;;;;;4991066;28;20034;-77
2022/10/03 04:07:16;;;;;;;11.00;8.27;;;7.90;99.90;;;;;;4991245;28;19909;-77
2022/10/03 04:10:06;;;;;;;12.23;8.27;;;7.90;99.90;;;;;;4990529;28;20054;-77
2022/10/03 04:12:50;;;;;;;14.03;9.43;;;7.90;99.90;;;;;;4991072;28;20105;-77
2022/10/03 04:15:28;;;;;;;15.30;9.07;;;7.90;99.90;;;;;;4986436;28;20510;-75
2022/10/03 04:21:31;;;;;;;17.13;10.55;;;7.80;99.90;;;;;;4982518;28;20094;-75
2022/10/03 04:24:19;;;;;;;16.23;10.37;;;7.80;99.90;;;;;;4991703;28;20482;-75
2022/10/03 04:27:19;;;;;;;13.47;10.10;;;7.80;99.90;;;;;;4993475;28;20475;-74
2022/10/03 04:30:03;;;;;;;13.63;10.93;;;7.80;99.90;;;;;;4999380;28;20050;-75
2022/10/03 04:33:17;;;;;;;15.77;10.47;;;7.80;99.90;;;;;;4983209;28;20445;-75
2022/10/03 04:36:28;;;;;;;16.93;11.07;;;7.80;99.90;;;;;;4962303;28;20380;-75
2022/10/03 04:39:29;;;;;;;15.67;11.10;;;7.80;99.90;;;;;;4981488;28;20236;-75
2022/10/03 04:42:12;;;;;;;14.13;10.50;;;7.80;99.90;;;;;;4991547;28;20030;-75
2022/10/03 04:45:03;;;;;;;15.33;11.27;;;7.70;99.90;;;;;;4991812;28;20027;-75
2022/10/03 04:47:47;;;;;;;17.67;10.27;;;7.70;99.90;;;;;;4990541;28;20034;-75
2022/10/03 04:50:21;;;;;;;14.83;10.33;;;7.70;99.90;;;;;;4991315;28;20479;-75
2022/10/03 04:53:05;;;;;;;16.10;10.17;;;7.70;99.90;;;;;;5002697;28;20209;-75
2022/10/03 04:55:39;;;;;;;15.63;10.87;;;7.70;99.90;;;;;;5005955;28;20022;-75
2022/10/03 04:58:16;;;;;;;17.37;10.80;;;7.70;99.90;;;;;;4992396;28;20053;-76
2022/10/03 05:01:13;;;;;;;17.80;11.17;;;7.60;99.90;;;;;;4990550;28;20148;-76
2022/10/03 05:04:09;;;;;;;17.20;11.27;;;7.60;99.90;;;;;;5004707;28;20033;-77
2022/10/03 05:07:12;;;;;;;18.92;11.57;;;7.60;99.90;;;;;;5003284;28;20022;-77
2022/10/03 05:09:55;;;;;;;16.20;10.83;;;7.70;99.90;;;;;;4980725;28;20411;-76
2022/10/03 05:12:40;;;;;;;17.63;11.13;;;7.70;99.90;;;;;;4990223;28;20471;-76
2022/10/03 05:15:21;;;;;;;16.98;11.80;;;7.70;99.90;;;;;;4990798;28;20031;-77
2022/10/03 05:18:20;;;;;;;16.80;10.87;;;7.60;99.90;;;;;;4990818;28;20534;-79
2022/10/03 05:20:59;;;;;;;17.57;12.37;;;7.70;99.90;;;;;;4990008;28;20062;-73
2022/10/03 05:23:44;;;;;;;18.93;11.03;;;7.70;99.90;;;;;;4996215;28;20490;-74
2022/10/03 05:26:40;;;;;;;15.13;10.50;;;7.70;99.90;;;;;;4996088;28;20692;-75
2022/10/03 05:29:40;;;;;;;16.00;11.57;;;7.70;99.90;;;;;;5006265;28;20021;-74
2022/10/03 05:32:12;;;;;;;18.33;11.23;;;7.70;99.90;;;;;;4984265;28;20054;-74
2022/10/03 05:35:04;;;;;;;14.67;11.50;;;7.70;99.90;;;;;;4981839;28;20033;-76
2022/10/03 05:37:59;;;;;;;17.13;10.53;;;7.70;99.90;;;;;;4989971;28;20101;-76
2022/10/03 05:40:36;;;;;;;14.90;10.73;;;7.70;99.90;;;;;;4993752;28;20022;-76
2022/10/03 05:43:51;;;;;;;17.00;11.33;;;7.80;99.90;;;;;;4993658;28;20041;-76
2022/10/03 05:46:51;;;;;;;19.10;11.53;;;7.80;99.90;;;;;;4971568;28;20046;-76
2022/10/03 05:49:31;;;;;;;15.67;10.80;;;7.80;99.90;;;;;;4988477;28;20438;-76
2022/10/03 05:52:21;;;;;;;14.47;11.10;;;7.90;99.90;;;;;;4992965;28;20079;-76
2022/10/03 05:55:21;;;;;;;19.33;12.27;;;7.90;99.90;;;;;;4993666;28;20382;-83
2022/10/03 05:58:17;;;;;;;16.33;11.63;;;7.90;99.90;;;;;;4988311;28;20019;-76
2022/10/03 06:01:01;;;;;;;;;;;8.00;99.90;;;;;;4992601;28;20026;-76
2022/10/03 06:03:45;;;;;;;16.00;10.93;;;7.90;99.90;;;;;;4996210;28;19945;-76
2022/10/03 06:06:23;;;;;;;15.13;11.30;;;7.90;99.90;;;;;;4994095;28;20038;-77
2022/10/03 06:08:53;;;;;;;16.57;11.70;;;7.90;99.90;;;;;;4993266;28;20058;-75
2022/10/03 06:11:43;;;;;;;19.73;12.23;;;7.90;99.90;;;;;;4993788;28;20030;-74
2022/10/03 06:14:39;;;;;;;15.87;10.60;;;7.90;99.90;;;;;;4982491;28;20022;-75
2022/10/03 06:17:26;;;;;;;15.50;11.20;;;7.90;99.90;;;;;;4993368;28;20034;-75
2022/10/03 06:20:15;;;;;;;19.93;11.17;;;7.90;99.90;;;;;;4995001;28;20030;-74
2022/10/03 06:23:26;;;;;;;14.63;12.00;;;7.90;99.90;;;;;;4990448;28;20356;-76
2022/10/03 06:26:08;;;;;;;16.57;10.67;;;8.00;99.90;;;;;;4961514;28;20088;-75
2022/10/03 06:28:55;;;;;;;15.60;10.27;;;8.00;99.90;;;;;;4987102;28;20019;-75
2022/10/03 06:31:54;;;;;;;18.23;10.70;;;8.10;99.90;;;;;;4988058;28;20026;-77
2022/10/03 06:34:57;;;;;;;16.20;11.13;;;8.10;99.90;;;;;;4991998;28;20633;-78
2022/10/03 06:37:50;;;;;;;13.17;10.43;;;8.10;99.90;;;;;;5004741;28;20028;-77
2022/10/03 06:40:52;;;;;;;14.77;10.90;;;8.10;99.90;;;;;;5008513;28;20026;-79
2022/10/03 06:43:37;;;;;;;13.30;10.57;;;8.20;99.90;;;;;;4993627;28;20105;-76
2022/10/03 06:46:32;;;;;;;13.65;10.48;;;8.20;99.90;;;;;;4989084;28;20056;-77
2022/10/03 06:49:16;;;;;;;15.07;10.68;;;8.20;99.90;;;;;;4981907;28;20467;-77
2022/10/03 06:52:10;;;;;;;18.60;10.83;;;8.30;99.90;;;;;;4991586;28;20026;-77
2022/10/03 06:54:55;;;;;;;15.15;11.60;;;8.40;99.90;;;;;;4992270;28;20026;-77
2022/10/03 06:57:45;;;;;;;12.80;10.63;;;8.50;99.90;;;;;;4986943;28;20065;-77
2022/10/03 07:00:14;;;;;;;15.60;10.63;;;8.50;99.90;;;;;;4984428;28;20045;-74
2022/10/03 07:03:17;;;;;;;11.67;9.47;;;8.60;99.90;;;;;;4988046;28;20031;-77
2022/10/03 07:06:09;;;;;;;12.80;10.67;;;8.80;99.90;;;;;;4982308;28;20054;-78
2022/10/03 07:08:44;;;;;;;13.47;10.03;;;8.90;99.90;;;;;;4991640;28;20383;-82
2022/10/03 07:11:09;;;;;;;13.43;9.50;;;9.00;99.90;;;;;;4992804;28;20451;-86
2022/10/03 07:13:50;;;;;;;12.57;9.60;;;9.00;99.90;;;;;;4992694;28;20044;-84
2022/10/03 07:16:45;;;;;;;12.37;9.50;;;9.10;99.90;;;;;;4996486;28;20051;-74
2022/10/03 07:19:20;;;;;;;13.00;9.07;;;9.30;99.90;;;;;;4984511;28;20030;-74
2022/10/03 07:22:14;;;;;;;10.27;8.63;;;9.30;99.90;;;;;;4987722;28;20482;-74
2022/10/03 07:25:04;;;;;;;9.73;7.97;;;9.40;99.90;;;;;;4990781;28;20030;-78
2022/10/03 07:28:03;;;;;;;13.43;8.40;;;9.50;99.90;;;;;;4984952;28;20427;-76
2022/10/03 07:31:06;;;;;;;10.33;8.13;;;9.60;99.90;;;;;;4991653;28;20142;-78
2022/10/03 07:33:58;;;;;;;9.03;7.43;;;9.70;99.90;;;;;;4982987;28;20383;-78
2022/10/03 07:39:43;;;;;;;9.03;8.07;;;9.90;99.90;;;;;;4956318;28;20129;-78
2022/10/03 07:42:47;;;;;;;9.27;8.00;;;10.00;99.90;;;;;;4987678;28;20034;-78
2022/10/03 07:45:22;;;;;;;10.43;8.37;;;10.10;99.90;;;;;;4989315;28;20031;-81
2022/10/03 07:48:05;;;;;;;12.32;8.75;;;10.20;99.90;;;;;;4990602;28;20036;-79
2022/10/03 07:50:58;;;;;;;9.15;7.38;;;10.30;99.90;;;;;;4991348;28;20022;-79
2022/10/03 07:53:52;;;;;;;11.03;8.20;;;10.30;99.90;;;;;;4986595;28;20090;-79
2022/10/03 07:56:36;;;;;;;12.97;8.67;;;10.40;99.90;;;;;;4990485;28;20364;-78
2022/10/03 07:59:29;;;;;;;12.30;8.90;;;10.50;99.90;;;;;;4989872;28;20030;-79
2022/10/03 08:02:14;;;;;;;14.93;9.97;;;10.60;99.90;;;;;;4987178;28;20034;-87
2022/10/03 08:05:02;;;;;;;14.40;9.65;;;10.50;99.90;;;;;;4991756;28;20030;-81
2022/10/03 08:07:52;;;;;;;13.68;10.13;;;10.60;99.90;;;;;;4986826;28;20041;-83
2022/10/03 08:11:01;;;;;;;18.20;11.25;;;10.50;99.90;;;;;;4990691;28;20487;-82
2022/10/03 08:14:02;;;;;;;17.77;10.00;;;10.50;99.90;;;;;;4986287;28;20101;-84
2022/10/03 08:16:42;;;;;;;14.77;9.45;;;10.50;99.90;;;;;;4987434;28;20050;-80
2022/10/03 08:19:47;;;;;;;18.83;10.38;;;10.50;99.90;;;;;;4990088;28;20511;-81
2022/10/03 08:22:34;;;;;;;16.10;12.30;;;10.40;99.90;;;;;;4990060;28;20395;-90
2022/10/03 08:25:31;;;;;;;16.17;10.73;;;10.40;99.90;;;;;;4990923;28;20057;-76
2022/10/03 08:28:02;;;;;;;17.73;10.60;;;10.40;99.90;;;;;;4993986;28;20475;-76
2022/10/03 08:30:33;;;;;;;15.52;10.90;;;10.40;99.90;;;;;;4991229;28;20111;-76
2022/10/03 08:33:33;;;;;;;19.70;11.27;;;10.50;99.90;;;;;;4989020;28;20026;-76
2022/10/03 08:36:38;;;;;;;22.80;11.93;;;10.40;99.90;;;;;;4992306;28;20030;-76
2022/10/03 08:39:09;;;;;;;22.27;13.57;;;10.40;99.90;;;;;;4981283;28;20101;-76
2022/10/03 08:42:12;;;;;;;23.00;12.93;;;10.40;99.90;;;;;;4984432;28;20034;-81
2022/10/03 08:44:49;;;;;;;19.98;12.60;;;10.40;99.90;;;;;;4993320;28;20030;-81
2022/10/03 08:47:49;;;;;;;24.05;12.43;;;10.40;99.90;;;;;;4990803;28;20479;-80
2022/10/03 08:50:32;;;;;;;19.40;12.40;;;10.50;99.90;;;;;;4994443;28;20026;-76
2022/10/03 08:53:26;;;;;;;18.17;11.95;;;10.50;99.90;;;;;;4994414;28;20033;-76
2022/10/03 08:56:16;;;;;;;17.15;11.38;;;10.60;99.90;;;;;;4991210;28;20018;-76
2022/10/03 08:59:01;;;;;;;18.98;11.07;;;10.70;99.90;;;;;;4986233;28;20503;-76
2022/10/03 09:01:41;;;;;;;17.67;9.32;;;10.80;99.90;;;;;;5005769;28;20018;-76
2022/10/03 09:04:45;;;;;;;18.77;10.13;;;10.90;99.90;;;;;;5001036;28;20033;-79
2022/10/03 09:07:30;;;;;;;18.85;10.48;;;11.10;99.90;;;;;;4983842;28;20023;-78
2022/10/03 09:10:07;;;;;;;18.58;9.75;;;11.40;99.90;;;;;;4997057;28;20030;-78
2022/10/03 09:12:42;;;;;;;14.80;9.25;;;11.50;99.90;;;;;;4994479;28;20146;-78
2022/10/03 09:15:33;;;;;;;12.93;8.85;;;11.60;99.90;;;;;;4996275;28;20130;-78
2022/10/03 09:18:42;;;;;;;14.82;9.40;;;11.70;99.90;;;;;;5009738;28;20027;-78
2022/10/03 09:21:33;;;;;;;16.27;8.73;;;11.90;99.90;;;;;;4989832;28;20023;-78
2022/10/03 09:24:23;;;;;;;12.13;7.32;;;11.90;99.90;;;;;;4994405;28;20026;-78
2022/10/03 09:27:12;;;;;;;11.93;7.00;;;12.00;99.90;;;;;;4997238;28;20030;-79
2022/10/03 09:30:00;;;;;;;12.38;7.75;;;12.10;99.90;;;;;;5014872;28;20037;-78
2022/10/03 09:32:31;;;;;;;15.93;7.47;;;12.20;99.90;;;;;;4985727;28;20018;-78
2022/10/03 09:35:08;;;;;;;13.35;7.30;;;12.20;99.90;;;;;;4992476;28;20030;-78
2022/10/03 09:37:45;;;;;;;16.88;7.97;;;12.20;99.90;;;;;;4985466;28;20092;-78
2022/10/03 09:40:42;;;;;;;13.02;7.32;;;12.20;99.90;;;;;;4995244;28;20022;-78
2022/10/03 09:43:33;;;;;;;12.68;6.47;;;12.20;99.90;;;;;;4994086;28;20065;-78
2022/10/03 09:46:15;;;;;;;12.77;6.70;;;12.40;99.90;;;;;;4993468;28;20030;-74
2022/10/03 09:48:50;;;;;;;10.95;5.80;;;12.50;99.90;;;;;;4993199;28;20022;-75
2022/10/03 09:51:51;;;;;;;11.05;5.70;;;12.60;99.90;;;;;;4986508;28;20037;-77
2022/10/03 09:54:54;;;;;;;15.38;5.95;;;12.60;99.90;;;;;;4982649;28;20031;-77
2022/10/03 09:57:44;;;;;;;15.30;6.50;;;12.50;99.90;;;;;;4985344;28;20050;-75
2022/10/03 10:00:20;;;;;;;16.17;6.28;;;12.50;99.90;;;;;;4992426;28;20402;-75
2022/10/03 10:03:01;;;;;;;13.45;5.57;;;12.50;99.90;;;;;;4992196;28;20037;-75
2022/10/03 10:05:32;;;;;;;11.73;5.15;;;12.50;99.90;;;;;;4988387;28;20105;-75
2022/10/03 10:08:31;;;;;;;11.40;5.28;;;12.60;99.90;;;;;;4982870;28;20483;-75
2022/10/03 10:11:18;;;;;;;16.02;6.10;;;12.80;99.90;;;;;;4982040;28;20069;-75
2022/10/03 10:13:56;;;;;;;9.35;5.63;;;13.10;99.90;;;;;;4992103;28;20030;-76
2022/10/03 10:16:46;;;;;;;13.38;5.28;;;13.20;99.90;;;;;;4983337;28;20026;-76
2022/10/03 10:19:24;;;;;;;13.50;5.28;;;13.40;99.90;;;;;;4993476;28;20446;-76
2022/10/03 10:21:58;;;;;;;9.82;4.85;;;13.40;99.90;;;;;;4992329;28;20062;-76
2022/10/03 10:24:58;;;;;;;8.30;4.40;;;13.60;99.90;;;;;;4992644;28;20113;-76
2022/10/03 10:27:45;;;;;;;12.95;4.65;;;13.80;99.90;;;;;;4974366;28;20071;-75
2022/10/03 10:30:19;;;;;;;9.73;4.32;;;14.00;99.90;;;;;;4984757;28;20042;-76
2022/10/03 10:33:06;;;;;;;6.63;3.17;;;14.20;99.90;;;;;;4992163;28;20030;-76
2022/10/03 10:36:05;;;;;;;6.85;3.22;;;14.30;99.90;;;;;;4985188;28;20030;-76
2022/10/03 10:38:52;;;;;;;8.68;3.60;;;14.40;99.90;;;;;;4998168;28;20026;-76
2022/10/03 10:41:59;;;;;;;10.38;3.80;;;14.30;99.90;;;;;;4993129;28;20463;-75
2022/10/03 10:44:43;;;;;;;13.85;4.38;;;14.30;99.90;;;;;;4993293;28;20045;-75
2022/10/03 10:47:45;;;;;;;8.00;3.28;;;14.30;99.90;;;;;;4984758;28;20038;-75
2022/10/03 10:50:39;;;;;;;10.00;3.90;;;14.30;99.90;;;;;;4991703;28;20038;-80
2022/10/03 10:53:42;;;;;;;14.85;4.07;;;14.20;99.90;;;;;;4991086;28;20471;-78
2022/10/03 10:56:45;;;;;;;7.80;4.07;;;14.20;99.90;;;;;;4992369;28;20031;-75
2022/10/03 10:59:58;;;;;;;7.82;3.72;;;14.20;99.90;;;;;;4983339;28;20030;-78
2022/10/03 11:02:38;;;;;;;11.68;3.40;;;14.30;99.90;;;;;;4991316;28;20042;-78
2022/10/03 11:05:41;;;;;;;10.40;3.75;;;14.30;99.90;;;;;;4995904;28;20041;-78
2022/10/03 11:08:42;;;;;;;10.10;3.90;;;14.40;99.90;;;;;;4983253;28;20061;-78
2022/10/03 11:11:35;;;;;;;9.60;3.85;;;14.60;99.90;;;;;;4985594;28;20058;-78
2022/10/03 11:14:19;;;;;;;6.68;2.90;;;15.00;99.90;;;;;;4988722;28;20076;-78
2022/10/03 11:17:13;;;;;;;9.63;3.80;;;15.40;99.90;;;;;;4990507;28;20101;-78
2022/10/03 11:19:53;;;;;;;9.25;3.38;;;15.70;99.90;;;;;;4991023;28;20030;-77
2022/10/03 11:22:48;;;;;;;8.45;3.60;;;15.90;99.90;;;;;;4992872;28;20026;-77
2022/10/03 11:26:01;;;;;;;4.63;2.97;;;16.10;99.90;;;;;;4941821;28;20401;-77
2022/10/03 11:29:04;;;;;;;12.32;4.03;;;16.20;99.90;;;;;;4938755;28;20047;-78
2022/10/03 11:31:47;;;;;;;7.03;3.17;;;16.50;99.90;;;;;;4991503;28;20037;-78
2022/10/03 11:34:27;;;;;;;9.05;3.78;;;16.60;99.90;;;;;;4981391;28;20022;-78
2022/10/03 11:37:14;;;;;;;8.88;3.08;;;16.60;99.90;;;;;;4975419;28;20030;-79
2022/10/03 11:39:46;;;;;;;9.32;3.50;;;16.40;99.90;;;;;;4982224;28;20035;-78
2022/10/03 11:42:27;;;;;;;10.63;3.50;;;16.30;99.90;;;;;;4981406;28;20141;-78
2022/10/03 11:44:55;;;;;;;7.10;3.22;;;16.40;99.90;;;;;;4979129;28;20023;-75
2022/10/03 11:47:31;;;;;;;7.22;3.08;;;16.30;99.90;;;;;;4990720;28;20381;-75
2022/10/03 11:49:59;;;;;;;8.82;3.85;;;16.30;99.90;;;;;;4988356;28;20014;-75
2022/10/03 11:52:34;;;;;;;6.65;2.88;;;16.50;99.90;;;;;;4991217;28;20054;-75
2022/10/03 11:55:05;;;;;;;6.55;4.28;;;16.90;99.90;;;;;;4991915;28;20371;-72
2022/10/03 11:57:35;;;;;;;10.35;3.50;;;17.20;99.90;;;;;;4988915;28;20038;-72
2022/10/03 12:00:15;;;;;;;8.23;2.95;;;17.60;99.90;;;;;;4988707;28;20038;-72
2022/10/03 12:02:58;;;;;;;11.43;3.65;;;17.90;99.90;;;;;;4984802;28;20117;-72
2022/10/03 12:09:07;;;;;;;6.35;2.65;;;18.30;99.90;;;;;;4985537;28;20041;-72
2022/10/03 12:11:40;;;;;;;9.68;4.03;;;18.50;99.90;;;;;;4981287;28;20072;-72
2022/10/03 12:14:18;;;;;;;7.18;3.65;;;18.50;99.90;;;;;;4990203;28;20037;-72
2022/10/03 12:17:02;;;;;;;9.70;3.80;;;18.30;99.90;;;;;;4982460;28;20125;-72
2022/10/03 12:20:05;;;;;;;8.60;3.40;;;17.80;99.90;;;;;;5002516;28;20113;-72
2022/10/03 12:22:48;;;;;;;8.02;2.85;;;17.30;99.90;;;;;;4988324;28;20105;-72
2022/10/03 12:25:29;;;;;;;6.47;2.70;;;17.00;99.90;;;;;;4983788;28;20030;-72
2022/10/03 12:28:04;;;;;;;7.63;3.08;;;17.00;99.90;;;;;;4988351;28;20041;-71
2022/10/03 12:30:46;;;;;;;6.53;2.65;;;17.00;99.90;;;;;;4987515;28;20034;-80
2022/10/03 12:33:27;;;;;;;6.68;3.10;;;17.20;99.90;;;;;;4985881;28;20026;-76
2022/10/03 12:36:05;;;;;;;5.82;2.85;;;17.30;99.90;;;;;;4992960;28;20080;-84
2022/10/03 12:39:00;;;;;;;8.35;3.22;;;17.10;99.90;;;;;;4991712;28;20403;-87
2022/10/03 12:42:02;;;;;;;9.65;2.65;;;17.10;99.90;;;;;;4989795;28;20121;-76
2022/10/03 12:44:39;;;;;;;6.60;2.40;;;17.10;99.90;;;;;;4991981;28;20034;-82
2022/10/03 12:47:19;;;;;;;8.10;2.80;;;17.30;99.90;;;;;;4990821;28;20066;-73
2022/10/03 12:50:12;;;;;;;6.25;2.65;;;17.50;99.90;;;;;;4987803;28;20045;-72
2022/10/03 12:53:06;;;;;;;7.47;2.55;;;17.80;99.90;;;;;;4990509;28;20030;-77
2022/10/03 12:55:36;;;;;;;7.20;2.50;;;18.10;99.90;;;;;;4991567;28;20014;-76
2022/10/03 12:58:18;;;;;;;7.70;3.10;;;18.10;99.90;;;;;;4991134;28;20063;-76
2022/10/03 13:01:27;;;;;;;7.93;2.92;;;17.90;99.90;;;;;;4991938;28;20019;-76
2022/10/03 13:04:04;;;;;;;7.90;3.05;;;17.80;99.90;;;;;;4991773;28;20042;-76
2022/10/03 13:06:52;;;;;;;9.98;3.60;;;17.80;99.90;;;;;;4991115;28;20023;-76
2022/10/03 13:09:38;;;;;;;6.25;2.80;;;17.60;99.90;;;;;;4989507;28;20042;-76
2022/10/03 13:12:10;;;;;;;9.10;3.67;;;17.20;99.90;;;;;;4991449;28;20023;-76
2022/10/03 13:14:57;;;;;;;8.27;3.25;;;16.90;99.90;;;;;;4991767;28;20454;-76
2022/10/03 13:17:29;;;;;;;9.20;3.58;;;16.70;99.90;;;;;;4991266;28;20090;-76
2022/10/03 13:20:05;;;;;;;8.43;3.10;;;16.70;99.90;;;;;;4984990;28;20092;-76
2022/10/03 13:22:44;;;;;;;8.88;3.00;;;16.90;99.90;;;;;;4987876;28;20018;-76
2022/10/03 13:25:20;;;;;;;7.95;3.20;;;17.10;99.90;;;;;;4991601;28;20029;-76
2022/10/03 13:27:51;;;;;;;8.68;3.25;;;17.00;99.90;;;;;;4991446;28;20027;-77
2022/10/03 13:30:19;;;;;;;7.30;3.20;;;17.10;99.90;;;;;;4991121;28;20027;-76
2022/10/03 13:32:55;;;;;;;7.10;3.10;;;17.10;99.90;;;;;;4989347;28;20490;-77
2022/10/03 13:38:55;;;;;;;6.25;2.97;;;16.80;99.90;;;;;;4990412;28;20702;-76
2022/10/03 13:41:36;;;;;;;9.10;3.30;;;16.60;99.90;;;;;;4985685;28;20027;-76
2022/10/03 13:44:19;;;;;;;6.50;2.95;;;16.60;99.90;;;;;;4994010;28;20026;-76
2022/10/03 13:46:52;;;;;;;10.85;2.92;;;16.60;99.90;;;;;;4993245;28;20030;-76
2022/10/03 13:49:34;;;;;;;7.93;2.80;;;16.40;99.90;;;;;;4994179;28;20030;-75
2022/10/03 13:52:17;;;;;;;8.70;3.80;;;16.10;99.90;;;;;;4988833;28;20372;-77
2022/10/03 13:55:02;;;;;;;9.63;3.05;;;15.80;99.90;;;;;;4991146;28;20547;-78
2022/10/03 13:58:06;;;;;;;8.25;2.60;;;15.80;99.90;;;;;;4993551;28;20037;-76
2022/10/03 14:00:56;;;;;;;7.63;2.65;;;15.80;99.90;;;;;;4992982;28;20034;-77
2022/10/03 14:03:40;;;;;;;7.63;2.83;;;15.80;99.90;;;;;;4983679;28;20571;-77
2022/10/03 14:06:17;;;;;;;9.75;2.50;;;15.80;99.90;;;;;;4988954;28;20085;-77
2022/10/03 14:09:01;;;;;;;9.35;2.88;;;15.80;99.90;;;;;;4992930;28;20061;-77
2022/10/03 14:11:48;;;;;;;13.63;3.88;;;15.80;99.90;;;;;;4993636;28;20471;-77
2022/10/03 14:14:45;;;;;;;6.07;2.50;;;15.50;99.90;;;;;;4992275;28;20026;-81
2022/10/03 14:17:24;;;;;;;7.47;2.50;;;15.40;99.90;;;;;;4989837;28;20022;-78
2022/10/03 14:20:23;;;;;;;6.90;2.58;;;15.30;99.90;;;;;;4989840;28;20036;-74
2022/10/03 14:23:19;;;;;;;6.55;2.63;;;15.30;99.90;;;;;;4990356;28;20030;-75
2022/10/03 14:25:51;;;;;;;8.90;2.83;;;15.30;99.90;;;;;;4991866;28;20085;-74
2022/10/03 14:28:45;;;;;;;9.27;2.42;;;15.30;99.90;;;;;;4992553;28;20046;-76
2022/10/03 14:31:15;;;;;;;10.23;2.50;;;15.30;99.90;;;;;;4984253;28;20141;-76
2022/10/03 14:34:06;;;;;;;11.60;2.45;;;15.30;99.90;;;;;;4990021;28;20037;-76
2022/10/03 14:36:54;;;;;;;5.75;2.38;;;15.30;99.90;;;;;;4977552;28;20046;-76
2022/10/03 14:39:44;;;;;;;6.43;2.75;;;15.20;99.90;;;;;;4984692;28;20324;-76